X  Fermer Données météorologiques d'aviation de Metar     LYNI Nis Airport
Température
-3°C Température
-8°C Point de rosée
69% Humidité



Vent
8 M/S
18 MPH
29 KM/H
16 KTS



320°
NO
Conditions actuelles

Partiellement nuageux Partiellement nuageux
Pression 1031.92 (hPa) - 30.47 (inHg)
Visibilité 6.2 (mile) - 10 (km)
Aéroport
Code de l'aéroport LYNI

Emplacement: Nis Airport
Distance: 63 (km)

Metar:
LYNI 061630Z 32016KT 290V350 9999 FEW025 M03/M08 Q1032 NOSIG

Temps: 06-02-2023 17:30 CET